sensor_id;sensor_type;location;lat;lon;timestamp;pressure;altitude;pressure_sealevel;temperature;humidity
69713;BME280;56980;51.826;4.424;2022-08-19T00:02:22;101495.59;;;21.47;66.10
69713;BME280;56980;51.826;4.424;2022-08-19T00:04:47;101497.63;;;21.52;65.91
69713;BME280;56980;51.826;4.424;2022-08-19T00:07:20;101490.59;;;21.51;65.67
69713;BME280;56980;51.826;4.424;2022-08-19T00:09:45;101494.09;;;21.51;65.77
69713;BME280;56980;51.826;4.424;2022-08-19T00:12:11;101487.56;;;21.49;65.64
69713;BME280;56980;51.826;4.424;2022-08-19T00:14:37;101507.41;;;21.58;65.60
69713;BME280;56980;51.826;4.424;2022-08-19T00:17:04;101507.69;;;21.55;65.65
69713;BME280;56980;51.826;4.424;2022-08-19T00:19:31;101518.69;;;21.55;66.05
69713;BME280;56980;51.826;4.424;2022-08-19T00:21:56;101515.94;;;21.55;66.07
69713;BME280;56980;51.826;4.424;2022-08-19T00:24:22;101521.94;;;21.53;66.24
69713;BME280;56980;51.826;4.424;2022-08-19T00:26:48;101513.16;;;21.49;66.22
69713;BME280;56980;51.826;4.424;2022-08-19T00:29:16;101521.69;;;21.46;66.46
69713;BME280;56980;51.826;4.424;2022-08-19T00:31:42;101520.19;;;21.50;66.28
69713;BME280;56980;51.826;4.424;2022-08-19T00:34:08;101515.91;;;21.49;66.48
69713;BME280;56980;51.826;4.424;2022-08-19T00:36:33;101509.88;;;21.40;66.72
69713;BME280;56980;51.826;4.424;2022-08-19T00:38:59;101511.59;;;21.31;66.76
69713;BME280;56980;51.826;4.424;2022-08-19T00:41:25;101513.59;;;21.31;66.68
69713;BME280;56980;51.826;4.424;2022-08-19T00:44:03;101512.09;;;21.35;66.72
69713;BME280;56980;51.826;4.424;2022-08-19T00:46:30;101507.34;;;21.36;66.83
69713;BME280;56980;51.826;4.424;2022-08-19T00:48:56;101510.63;;;21.34;66.68
69713;BME280;56980;51.826;4.424;2022-08-19T00:51:24;101519.88;;;21.31;66.92
69713;BME280;56980;51.826;4.424;2022-08-19T00:53:52;101510.69;;;21.09;68.37
69713;BME280;56980;51.826;4.424;2022-08-19T00:56:18;101514.56;;;21.22;66.96
69713;BME280;56980;51.826;4.424;2022-08-19T00:58:43;101523.00;;;21.08;68.28
69713;BME280;56980;51.826;4.424;2022-08-19T01:01:09;101517.13;;;20.89;69.81
69713;BME280;56980;51.826;4.424;2022-08-19T01:03:34;101525.41;;;20.94;69.25
69713;BME280;56980;51.826;4.424;2022-08-19T01:06:00;101523.47;;;21.06;68.45
69713;BME280;56980;51.826;4.424;2022-08-19T01:08:26;101523.25;;;21.10;68.37
69713;BME280;56980;51.826;4.424;2022-08-19T01:10:56;101530.50;;;21.07;68.75
69713;BME280;56980;51.826;4.424;2022-08-19T01:13:25;101528.25;;;21.11;68.71
69713;BME280;56980;51.826;4.424;2022-08-19T01:16:01;101532.00;;;21.08;68.60
69713;BME280;56980;51.826;4.424;2022-08-19T01:18:28;101523.03;;;21.13;68.40
69713;BME280;56980;51.826;4.424;2022-08-19T01:20:56;101513.50;;;21.14;68.50
69713;BME280;56980;51.826;4.424;2022-08-19T01:23:23;101506.94;;;21.06;68.93
69713;BME280;56980;51.826;4.424;2022-08-19T01:26:09;101512.75;;;21.14;68.61
69713;BME280;56980;51.826;4.424;2022-08-19T01:28:36;101523.50;;;21.12;68.64
69713;BME280;56980;51.826;4.424;2022-08-19T01:31:02;101523.22;;;21.04;69.05
69713;BME280;56980;51.826;4.424;2022-08-19T01:33:28;101523.97;;;21.05;68.77
69713;BME280;56980;51.826;4.424;2022-08-19T01:36:07;101524.94;;;21.02;68.65
69713;BME280;56980;51.826;4.424;2022-08-19T01:38:37;101531.47;;;21.04;69.16
69713;BME280;56980;51.826;4.424;2022-08-19T01:41:04;101531.22;;;21.02;69.03
69713;BME280;56980;51.826;4.424;2022-08-19T01:43:31;101526.69;;;20.93;70.50
69713;BME280;56980;51.826;4.424;2022-08-19T01:45:57;101526.38;;;20.86;70.86
69713;BME280;56980;51.826;4.424;2022-08-19T01:48:22;101512.06;;;20.82;71.99
69713;BME280;56980;51.826;4.424;2022-08-19T01:50:48;101519.88;;;20.89;71.26
69713;BME280;56980;51.826;4.424;2022-08-19T01:53:14;101523.81;;;20.77;72.81
69713;BME280;56980;51.826;4.424;2022-08-19T01:55:41;101511.22;;;20.65;73.18
69713;BME280;56980;51.826;4.424;2022-08-19T01:58:20;101515.34;;;20.49;74.72
69713;BME280;56980;51.826;4.424;2022-08-19T02:00:47;101526.06;;;20.41;74.59
69713;BME280;56980;51.826;4.424;2022-08-19T02:03:13;101521.00;;;20.34;75.17
69713;BME280;56980;51.826;4.424;2022-08-19T02:05:39;101515.47;;;20.34;75.52
69713;BME280;56980;51.826;4.424;2022-08-19T02:08:05;101509.28;;;20.39;74.84
69713;BME280;56980;51.826;4.424;2022-08-19T02:10:30;101513.56;;;20.40;74.56
69713;BME280;56980;51.826;4.424;2022-08-19T02:12:57;101496.53;;;20.16;76.45
69713;BME280;56980;51.826;4.424;2022-08-19T02:15:22;101517.00;;;20.35;75.83
69713;BME280;56980;51.826;4.424;2022-08-19T02:17:48;101517.41;;;20.28;75.43
69713;BME280;56980;51.826;4.424;2022-08-19T02:20:14;101521.09;;;20.20;75.76
69713;BME280;56980;51.826;4.424;2022-08-19T02:22:40;101523.63;;;20.23;75.68
69713;BME280;56980;51.826;4.424;2022-08-19T02:25:08;101524.50;;;20.09;76.43
69713;BME280;56980;51.826;4.424;2022-08-19T02:27:33;101518.19;;;20.03;76.99
69713;BME280;56980;51.826;4.424;2022-08-19T02:29:59;101514.16;;;20.30;75.48
69713;BME280;56980;51.826;4.424;2022-08-19T02:32:25;101514.28;;;20.41;74.65
69713;BME280;56980;51.826;4.424;2022-08-19T02:34:50;101517.09;;;20.46;74.11
69713;BME280;56980;51.826;4.424;2022-08-19T02:37:15;101513.38;;;20.55;73.45
69713;BME280;56980;51.826;4.424;2022-08-19T02:40:00;101508.63;;;20.55;73.20
69713;BME280;56980;51.826;4.424;2022-08-19T02:42:26;101508.63;;;20.55;73.45
69713;BME280;56980;51.826;4.424;2022-08-19T02:44:51;101510.19;;;20.62;72.86
69713;BME280;56980;51.826;4.424;2022-08-19T02:47:17;101503.13;;;20.55;73.24
69713;BME280;56980;51.826;4.424;2022-08-19T02:49:44;101497.91;;;20.58;72.51
69713;BME280;56980;51.826;4.424;2022-08-19T02:52:10;101494.63;;;20.53;73.20
69713;BME280;56980;51.826;4.424;2022-08-19T02:54:36;101507.69;;;20.64;73.18
69713;BME280;56980;51.826;4.424;2022-08-19T02:57:02;101506.94;;;20.64;73.15
69713;BME280;56980;51.826;4.424;2022-08-19T02:59:30;101492.66;;;20.60;73.30
69713;BME280;56980;51.826;4.424;2022-08-19T03:01:56;101483.16;;;20.61;72.88
69713;BME280;56980;51.826;4.424;2022-08-19T03:04:22;101497.72;;;20.67;72.89
69713;BME280;56980;51.826;4.424;2022-08-19T03:06:48;101494.91;;;20.61;73.72
69713;BME280;56980;51.826;4.424;2022-08-19T03:09:14;101494.63;;;20.53;73.68
69713;BME280;56980;51.826;4.424;2022-08-19T03:11:40;101483.59;;;20.53;74.04
69713;BME280;56980;51.826;4.424;2022-08-19T03:14:07;101486.59;;;20.55;73.86
69713;BME280;56980;51.826;4.424;2022-08-19T03:16:39;101492.31;;;20.46;74.59
69713;BME280;56980;51.826;4.424;2022-08-19T03:19:05;101493.06;;;20.47;74.65
69713;BME280;56980;51.826;4.424;2022-08-19T03:21:32;101494.00;;;20.38;75.21
69713;BME280;56980;51.826;4.424;2022-08-19T03:24:00;101487.41;;;20.30;75.43
69713;BME280;56980;51.826;4.424;2022-08-19T03:26:26;101486.88;;;20.26;75.13
69713;BME280;56980;51.826;4.424;2022-08-19T03:28:52;101490.16;;;20.30;74.60
69713;BME280;56980;51.826;4.424;2022-08-19T03:31:21;101482.78;;;20.16;75.31
69713;BME280;56980;51.826;4.424;2022-08-19T03:33:50;101490.25;;;20.10;75.60
69713;BME280;56980;51.826;4.424;2022-08-19T03:36:22;101481.28;;;20.15;75.25
69713;BME280;56980;51.826;4.424;2022-08-19T03:38:52;101468.38;;;20.01;75.41
69713;BME280;56980;51.826;4.424;2022-08-19T03:41:23;101474.97;;;20.09;75.13
69713;BME280;56980;51.826;4.424;2022-08-19T03:43:49;101486.25;;;20.11;75.32
69713;BME280;56980;51.826;4.424;2022-08-19T03:46:22;101470.78;;;19.88;75.13
69713;BME280;56980;51.826;4.424;2022-08-19T03:48:52;101483.03;;;19.87;75.96
69713;BME280;56980;51.826;4.424;2022-08-19T03:51:22;101480.34;;;19.92;75.76
69713;BME280;56980;51.826;4.424;2022-08-19T03:53:48;101479.34;;;19.95;75.38
69713;BME280;56980;51.826;4.424;2022-08-19T03:56:14;101493.88;;;19.96;75.37
69713;BME280;56980;51.826;4.424;2022-08-19T03:58:40;101497.78;;;19.63;77.41
69713;BME280;56980;51.826;4.424;2022-08-19T04:01:11;101516.53;;;19.85;76.46
69713;BME280;56980;51.826;4.424;2022-08-19T04:03:38;101507.09;;;19.92;75.97
69713;BME280;56980;51.826;4.424;2022-08-19T04:06:19;101511.59;;;19.95;75.91
69713;BME280;56980;51.826;4.424;2022-08-19T04:08:47;101513.25;;;20.07;75.41
69713;BME280;56980;51.826;4.424;2022-08-19T04:11:15;101513.13;;;19.96;76.29
69713;BME280;56980;51.826;4.424;2022-08-19T04:13:41;101513.69;;;20.00;75.71
69713;BME280;56980;51.826;4.424;2022-08-19T04:16:09;101512.38;;;19.95;76.39
69713;BME280;56980;51.826;4.424;2022-08-19T04:18:36;101510.22;;;20.05;75.49
69713;BME280;56980;51.826;4.424;2022-08-19T04:21:01;101512.59;;;19.92;76.63
69713;BME280;56980;51.826;4.424;2022-08-19T04:23:27;101504.06;;;19.90;76.81
69713;BME280;56980;51.826;4.424;2022-08-19T04:25:53;101511.50;;;19.84;77.05
69713;BME280;56980;51.826;4.424;2022-08-19T04:28:19;101503.41;;;19.74;77.68
69713;BME280;56980;51.826;4.424;2022-08-19T04:30:48;101510.22;;;19.79;78.07
69713;BME280;56980;51.826;4.424;2022-08-19T04:33:16;101522.28;;;19.87;77.89
69713;BME280;56980;51.826;4.424;2022-08-19T04:35:46;101519.06;;;19.89;78.12
69713;BME280;56980;51.826;4.424;2022-08-19T04:38:12;101512.41;;;20.01;77.45
69713;BME280;56980;51.826;4.424;2022-08-19T04:40:47;101511.16;;;20.02;77.61
69713;BME280;56980;51.826;4.424;2022-08-19T04:43:33;101506.84;;;20.21;76.71
69713;BME280;56980;51.826;4.424;2022-08-19T04:46:05;101514.09;;;20.18;77.09
69713;BME280;56980;51.826;4.424;2022-08-19T04:48:30;101509.97;;;20.08;77.78
69713;BME280;56980;51.826;4.424;2022-08-19T04:50:57;101513.59;;;20.20;77.07
69713;BME280;56980;51.826;4.424;2022-08-19T04:53:30;101500.91;;;20.28;76.64
69713;BME280;56980;51.826;4.424;2022-08-19T04:55:58;101505.16;;;20.29;76.48
69713;BME280;56980;51.826;4.424;2022-08-19T04:58:26;101502.00;;;20.36;76.49
69713;BME280;56980;51.826;4.424;2022-08-19T05:00:52;101510.84;;;20.20;76.61
69713;BME280;56980;51.826;4.424;2022-08-19T05:03:17;101513.91;;;20.28;76.69
69713;BME280;56980;51.826;4.424;2022-08-19T05:05:47;101517.97;;;20.32;76.52
69713;BME280;56980;51.826;4.424;2022-08-19T05:08:19;101518.41;;;20.25;76.61
69713;BME280;56980;51.826;4.424;2022-08-19T05:10:48;101512.25;;;20.10;77.16
69713;BME280;56980;51.826;4.424;2022-08-19T05:13:14;101517.63;;;20.25;76.99
69713;BME280;56980;51.826;4.424;2022-08-19T05:15:41;101511.75;;;20.37;76.04
69713;BME280;56980;51.826;4.424;2022-08-19T05:18:07;101518.03;;;20.12;77.21
69713;BME280;56980;51.826;4.424;2022-08-19T05:20:51;101519.00;;;20.09;77.78
69713;BME280;56980;51.826;4.424;2022-08-19T05:23:35;101519.06;;;19.89;79.07
69713;BME280;56980;51.826;4.424;2022-08-19T05:26:00;101517.63;;;19.93;78.79
69713;BME280;56980;51.826;4.424;2022-08-19T05:28:26;101523.97;;;20.05;78.29
69713;BME280;56980;51.826;4.424;2022-08-19T05:30:52;101519.47;;;20.07;78.42
69713;BME280;56980;51.826;4.424;2022-08-19T05:33:20;101510.31;;;20.16;78.43
69713;BME280;56980;51.826;4.424;2022-08-19T05:35:47;101502.00;;;20.10;78.11
69713;BME280;56980;51.826;4.424;2022-08-19T05:38:15;101508.91;;;20.00;79.32
69713;BME280;56980;51.826;4.424;2022-08-19T05:40:40;101499.28;;;20.16;78.20
69713;BME280;56980;51.826;4.424;2022-08-19T05:43:07;101510.59;;;20.18;78.67
69713;BME280;56980;51.826;4.424;2022-08-19T05:45:38;101512.53;;;20.12;79.02
69713;BME280;56980;51.826;4.424;2022-08-19T05:48:04;101515.91;;;20.27;78.12
69713;BME280;56980;51.826;4.424;2022-08-19T05:50:29;101516.69;;;20.02;79.80
69713;BME280;56980;51.826;4.424;2022-08-19T05:52:55;101516.94;;;20.04;79.28
69713;BME280;56980;51.826;4.424;2022-08-19T05:55:21;101516.00;;;20.33;78.26
69713;BME280;56980;51.826;4.424;2022-08-19T05:57:47;101504.56;;;20.45;76.97
69713;BME280;56980;51.826;4.424;2022-08-19T06:00:13;101509.88;;;20.54;76.86
69713;BME280;56980;51.826;4.424;2022-08-19T06:02:39;101503.06;;;20.44;77.31
69713;BME280;56980;51.826;4.424;2022-08-19T06:05:06;101511.16;;;20.28;77.80
69713;BME280;56980;51.826;4.424;2022-08-19T06:07:37;101517.59;;;20.19;78.25
69713;BME280;56980;51.826;4.424;2022-08-19T06:10:08;101522.50;;;20.35;78.03
69713;BME280;56980;51.826;4.424;2022-08-19T06:12:34;101509.31;;;20.45;77.44
69713;BME280;56980;51.826;4.424;2022-08-19T06:15:05;101522.22;;;20.65;76.88
69713;BME280;56980;51.826;4.424;2022-08-19T06:17:31;101517.97;;;20.32;78.02
69713;BME280;56980;51.826;4.424;2022-08-19T06:19:59;101514.59;;;20.48;77.51
69713;BME280;56980;51.826;4.424;2022-08-19T06:22:25;101515.81;;;20.16;79.40
69713;BME280;56980;51.826;4.424;2022-08-19T06:24:51;101516.59;;;20.22;79.14
69713;BME280;56980;51.826;4.424;2022-08-19T06:27:19;101512.44;;;20.32;78.94
69713;BME280;56980;51.826;4.424;2022-08-19T06:29:44;101509.63;;;20.52;77.76
69713;BME280;56980;51.826;4.424;2022-08-19T06:32:11;101509.34;;;20.50;78.40
69713;BME280;56980;51.826;4.424;2022-08-19T06:34:36;101504.69;;;20.31;78.62
69713;BME280;56980;51.826;4.424;2022-08-19T06:37:02;101509.88;;;20.54;78.26
69713;BME280;56980;51.826;4.424;2022-08-19T06:39:31;101521.72;;;20.61;78.32
69713;BME280;56980;51.826;4.424;2022-08-19T06:42:00;101506.31;;;20.17;79.58
69713;BME280;56980;51.826;4.424;2022-08-19T06:44:27;101512.13;;;20.50;78.57
69713;BME280;56980;51.826;4.424;2022-08-19T06:46:55;101509.25;;;20.71;78.23
69713;BME280;56980;51.826;4.424;2022-08-19T06:49:21;101521.09;;;20.45;79.33
69713;BME280;56980;51.826;4.424;2022-08-19T06:51:48;101524.28;;;20.75;78.12
69713;BME280;56980;51.826;4.424;2022-08-19T06:54:15;101517.91;;;20.95;77.37
69713;BME280;56980;51.826;4.424;2022-08-19T06:56:41;101516.91;;;20.98;77.00
69713;BME280;56980;51.826;4.424;2022-08-19T06:59:20;101522.25;;;21.13;76.57
69713;BME280;56980;51.826;4.424;2022-08-19T07:01:51;101519.13;;;20.88;77.65
69713;BME280;56980;51.826;4.424;2022-08-19T07:04:19;101525.06;;;21.18;76.40
69713;BME280;56980;51.826;4.424;2022-08-19T07:06:45;101525.47;;;21.00;77.49
69713;BME280;56980;51.826;4.424;2022-08-19T07:09:13;101524.00;;;21.10;76.96
69713;BME280;56980;51.826;4.424;2022-08-19T07:11:50;101541.38;;;21.22;77.10
69713;BME280;56980;51.826;4.424;2022-08-19T07:14:18;101538.84;;;21.18;76.67
69713;BME280;56980;51.826;4.424;2022-08-19T07:16:45;101543.13;;;21.19;76.77
69713;BME280;56980;51.826;4.424;2022-08-19T07:19:11;101547.63;;;21.22;76.60
69713;BME280;56980;51.826;4.424;2022-08-19T07:21:37;101529.28;;;21.14;76.28
69713;BME280;56980;51.826;4.424;2022-08-19T07:24:03;101537.44;;;21.34;76.47
69713;BME280;56980;51.826;4.424;2022-08-19T07:26:37;101538.22;;;21.46;75.45
69713;BME280;56980;51.826;4.424;2022-08-19T07:29:04;101539.16;;;21.31;76.11
69713;BME280;56980;51.826;4.424;2022-08-19T07:31:29;101538.00;;;21.01;77.37
69713;BME280;56980;51.826;4.424;2022-08-19T07:33:55;101534.59;;;21.17;77.50
69713;BME280;56980;51.826;4.424;2022-08-19T07:36:25;101547.22;;;21.41;76.66
69713;BME280;56980;51.826;4.424;2022-08-19T07:38:51;101540.72;;;21.44;76.78
69713;BME280;56980;51.826;4.424;2022-08-19T07:41:20;101549.53;;;21.53;75.98
69713;BME280;56980;51.826;4.424;2022-08-19T07:43:46;101544.03;;;21.64;75.96
69713;BME280;56980;51.826;4.424;2022-08-19T07:46:12;101535.25;;;21.55;75.89
69713;BME280;56980;51.826;4.424;2022-08-19T07:48:40;101546.47;;;21.40;76.88
69713;BME280;56980;51.826;4.424;2022-08-19T07:51:06;101545.84;;;21.73;75.45
69713;BME280;56980;51.826;4.424;2022-08-19T07:53:34;101553.88;;;21.82;75.08
69713;BME280;56980;51.826;4.424;2022-08-19T07:56:00;101556.16;;;21.95;74.68
69713;BME280;56980;51.826;4.424;2022-08-19T07:58:27;101559.38;;;21.82;75.66
69713;BME280;56980;51.826;4.424;2022-08-19T08:00:53;101571.91;;;21.72;76.03
69713;BME280;56980;51.826;4.424;2022-08-19T08:03:21;101562.97;;;21.99;74.74
69713;BME280;56980;51.826;4.424;2022-08-19T08:06:11;101551.19;;;21.99;75.83
69713;BME280;56980;51.826;4.424;2022-08-19T08:08:55;101566.00;;;22.12;74.97
69713;BME280;56980;51.826;4.424;2022-08-19T08:11:35;101558.97;;;22.23;74.63
69713;BME280;56980;51.826;4.424;2022-08-19T08:14:01;101564.50;;;22.23;74.35
69713;BME280;56980;51.826;4.424;2022-08-19T08:16:27;101552.97;;;22.30;74.54
69713;BME280;56980;51.826;4.424;2022-08-19T08:18:56;101558.25;;;22.28;74.55
69713;BME280;56980;51.826;4.424;2022-08-19T08:21:21;101565.03;;;22.38;74.58
69713;BME280;56980;51.826;4.424;2022-08-19T08:23:46;101573.81;;;22.64;74.05
69713;BME280;56980;51.826;4.424;2022-08-19T08:26:12;101579.09;;;22.62;73.20
69713;BME280;56980;51.826;4.424;2022-08-19T08:28:39;101566.78;;;22.69;72.86
69713;BME280;56980;51.826;4.424;2022-08-19T08:31:05;101574.59;;;22.81;72.66
69713;BME280;56980;51.826;4.424;2022-08-19T08:33:30;101577.34;;;22.81;73.34
69713;BME280;56980;51.826;4.424;2022-08-19T08:35:56;101579.09;;;22.96;72.52
69713;BME280;56980;51.826;4.424;2022-08-19T08:38:22;101573.03;;;22.91;72.56
69713;BME280;56980;51.826;4.424;2022-08-19T08:40:50;101572.25;;;23.08;72.03
69713;BME280;56980;51.826;4.424;2022-08-19T08:43:30;101580.44;;;23.52;69.78
69713;BME280;56980;51.826;4.424;2022-08-19T08:46:13;101579.34;;;23.66;70.52
69713;BME280;56980;51.826;4.424;2022-08-19T08:48:54;101579.66;;;23.46;69.71
69713;BME280;56980;51.826;4.424;2022-08-19T08:51:25;101571.19;;;23.27;70.62
69713;BME280;56980;51.826;4.424;2022-08-19T08:53:52;101576.19;;;23.40;70.46
69713;BME280;56980;51.826;4.424;2022-08-19T08:56:19;101564.63;;;23.42;70.46
69713;BME280;56980;51.826;4.424;2022-08-19T08:58:51;101582.69;;;23.54;70.21
69713;BME280;56980;51.826;4.424;2022-08-19T09:01:19;101579.44;;;23.50;69.84
69713;BME280;56980;51.826;4.424;2022-08-19T09:03:45;101577.59;;;23.69;69.41
69713;BME280;56980;51.826;4.424;2022-08-19T09:06:12;101576.34;;;23.64;69.75
69713;BME280;56980;51.826;4.424;2022-08-19T09:09:04;101575.19;;;23.95;69.22
69713;BME280;56980;51.826;4.424;2022-08-19T09:14:39;101581.97;;;23.94;68.73
69713;BME280;56980;51.826;4.424;2022-08-19T09:17:09;101590.66;;;23.74;67.39
69713;BME280;56980;51.826;4.424;2022-08-19T09:19:46;101578.66;;;23.55;68.01
69713;BME280;56980;51.826;4.424;2022-08-19T09:22:12;101583.16;;;23.63;67.59
69713;BME280;56980;51.826;4.424;2022-08-19T09:24:37;101591.22;;;24.08;66.93
69713;BME280;56980;51.826;4.424;2022-08-19T09:27:03;101588.69;;;24.10;65.46
69713;BME280;56980;51.826;4.424;2022-08-19T09:29:29;101579.34;;;23.66;65.52
69713;BME280;56980;51.826;4.424;2022-08-19T09:31:54;101591.94;;;23.67;65.94
69713;BME280;56980;51.826;4.424;2022-08-19T09:34:20;101592.47;;;23.60;66.15
69713;BME280;56980;51.826;4.424;2022-08-19T09:36:45;101582.44;;;23.46;66.48
69713;BME280;56980;51.826;4.424;2022-08-19T09:39:10;101590.69;;;23.68;66.46
69713;BME280;56980;51.826;4.424;2022-08-19T09:41:36;101592.38;;;23.83;65.71
69713;BME280;56980;51.826;4.424;2022-08-19T09:44:02;101586.69;;;24.05;64.74
69713;BME280;56980;51.826;4.424;2022-08-19T09:46:28;101593.72;;;24.06;65.11
69713;BME280;56980;51.826;4.424;2022-08-19T09:48:58;101592.94;;;23.64;64.88
69713;BME280;56980;51.826;4.424;2022-08-19T09:51:25;101594.34;;;23.88;64.92
69713;BME280;56980;51.826;4.424;2022-08-19T09:53:53;101592.44;;;24.13;64.81
69713;BME280;56980;51.826;4.424;2022-08-19T09:56:20;101586.28;;;23.90;64.06
69713;BME280;56980;51.826;4.424;2022-08-19T09:58:46;101585.56;;;24.30;63.75
69713;BME280;56980;51.826;4.424;2022-08-19T10:01:18;101593.47;;;24.45;63.27
69713;BME280;56980;51.826;4.424;2022-08-19T10:03:47;101596.25;;;24.75;63.05
69713;BME280;56980;51.826;4.424;2022-08-19T10:06:13;101601.16;;;24.87;62.39
69713;BME280;56980;51.826;4.424;2022-08-19T10:08:39;101589.72;;;25.02;62.73
69713;BME280;56980;51.826;4.424;2022-08-19T10:11:05;101600.28;;;25.04;61.78
69713;BME280;56980;51.826;4.424;2022-08-19T10:13:32;101595.94;;;25.08;61.28
69713;BME280;56980;51.826;4.424;2022-08-19T10:16:06;101600.91;;;25.15;61.17
69713;BME280;56980;51.826;4.424;2022-08-19T10:18:33;101595.81;;;25.44;61.14
69713;BME280;56980;51.826;4.424;2022-08-19T10:21:08;101591.78;;;25.20;61.61
69713;BME280;56980;51.826;4.424;2022-08-19T10:23:36;101585.44;;;25.01;61.65
69713;BME280;56980;51.826;4.424;2022-08-19T10:26:06;101593.88;;;24.90;61.91
69713;BME280;56980;51.826;4.424;2022-08-19T10:28:36;101590.91;;;24.82;62.70
69713;BME280;56980;51.826;4.424;2022-08-19T10:31:09;101583.34;;;24.83;62.23
69713;BME280;56980;51.826;4.424;2022-08-19T10:33:36;101584.03;;;24.89;61.99
69713;BME280;56980;51.826;4.424;2022-08-19T10:36:08;101586.38;;;25.09;61.58
69713;BME280;56980;51.826;4.424;2022-08-19T10:38:35;101587.38;;;24.82;62.10
69713;BME280;56980;51.826;4.424;2022-08-19T10:41:11;101590.16;;;24.82;62.22
69713;BME280;56980;51.826;4.424;2022-08-19T10:43:38;101585.25;;;24.94;62.08
69713;BME280;56980;51.826;4.424;2022-08-19T10:46:09;101579.88;;;25.01;61.99
69713;BME280;56980;51.826;4.424;2022-08-19T10:48:35;101568.31;;;25.21;60.08
69713;BME280;56980;51.826;4.424;2022-08-19T10:51:01;101575.44;;;25.17;61.55
69713;BME280;56980;51.826;4.424;2022-08-19T10:53:45;101577.41;;;25.41;58.98
69713;BME280;56980;51.826;4.424;2022-08-19T10:56:11;101586.56;;;25.36;60.09
69713;BME280;56980;51.826;4.424;2022-08-19T10:58:55;101584.47;;;24.69;63.17
69713;BME280;56980;51.826;4.424;2022-08-19T11:01:21;101587.00;;;24.97;64.29
69713;BME280;56980;51.826;4.424;2022-08-19T11:03:47;101593.06;;;24.95;64.72
69713;BME280;56980;51.826;4.424;2022-08-19T11:06:12;101595.94;;;25.08;65.39
69713;BME280;56980;51.826;4.424;2022-08-19T11:08:38;101584.28;;;24.91;65.51
69713;BME280;56980;51.826;4.424;2022-08-19T11:11:05;101591.09;;;24.90;65.41
69713;BME280;56980;51.826;4.424;2022-08-19T11:13:34;101596.38;;;25.18;65.09
69713;BME280;56980;51.826;4.424;2022-08-19T11:16:03;101594.94;;;25.11;65.47
69713;BME280;56980;51.826;4.424;2022-08-19T11:18:29;101586.94;;;25.02;65.13
69713;BME280;56980;51.826;4.424;2022-08-19T11:20:54;101576.78;;;25.10;65.34
69713;BME280;56980;51.826;4.424;2022-08-19T11:23:20;101586.13;;;25.32;64.08
69713;BME280;56980;51.826;4.424;2022-08-19T11:25:46;101595.13;;;25.38;64.48
69713;BME280;56980;51.826;4.424;2022-08-19T11:28:12;101593.75;;;25.25;63.67
69713;BME280;56980;51.826;4.424;2022-08-19T11:30:39;101584.50;;;24.93;64.85
69713;BME280;56980;51.826;4.424;2022-08-19T11:33:05;101592.50;;;25.02;64.90
69713;BME280;56980;51.826;4.424;2022-08-19T11:35:30;101592.44;;;25.32;64.76
69713;BME280;56980;51.826;4.424;2022-08-19T11:37:56;101600.28;;;25.04;67.13
69713;BME280;56980;51.826;4.424;2022-08-19T11:40:26;101594.00;;;25.03;67.42
69713;BME280;56980;51.826;4.424;2022-08-19T11:42:52;101595.03;;;25.00;68.39
69713;BME280;56980;51.826;4.424;2022-08-19T11:45:22;101596.25;;;24.75;68.05
69713;BME280;56980;51.826;4.424;2022-08-19T11:47:47;101589.19;;;24.50;68.17
69713;BME280;56980;51.826;4.424;2022-08-19T11:50:14;101586.19;;;24.72;67.39
69713;BME280;56980;51.826;4.424;2022-08-19T11:52:40;101590.72;;;24.75;67.03
69713;BME280;56980;51.826;4.424;2022-08-19T11:55:06;101588.63;;;24.81;67.15
69713;BME280;56980;51.826;4.424;2022-08-19T11:57:31;101597.41;;;24.91;66.53
69713;BME280;56980;51.826;4.424;2022-08-19T11:59:57;101587.59;;;24.84;66.64
69713;BME280;56980;51.826;4.424;2022-08-19T12:02:22;101597.75;;;24.76;67.43
69713;BME280;56980;51.826;4.424;2022-08-19T12:04:48;101599.16;;;24.88;66.79
69713;BME280;56980;51.826;4.424;2022-08-19T12:07:14;101608.97;;;24.89;68.42
69713;BME280;56980;51.826;4.424;2022-08-19T12:09:39;101599.16;;;24.88;69.22
69713;BME280;56980;51.826;4.424;2022-08-19T12:12:05;101591.09;;;24.60;71.23
69713;BME280;56980;51.826;4.424;2022-08-19T12:14:31;101594.78;;;24.38;72.13
69713;BME280;56980;51.826;4.424;2022-08-19T12:16:57;101597.06;;;24.40;73.24
69713;BME280;56980;51.826;4.424;2022-08-19T12:19:23;101602.31;;;24.43;73.38
69713;BME280;56980;51.826;4.424;2022-08-19T12:21:50;101611.09;;;24.47;73.14
69713;BME280;56980;51.826;4.424;2022-08-19T12:24:16;101605.44;;;24.29;73.76
69713;BME280;56980;51.826;4.424;2022-08-19T12:26:48;101604.22;;;24.24;73.76
69713;BME280;56980;51.826;4.424;2022-08-19T12:29:14;101597.94;;;24.24;74.42
69713;BME280;56980;51.826;4.424;2022-08-19T12:31:40;101599.78;;;24.45;74.47
69713;BME280;56980;51.826;4.424;2022-08-19T12:34:05;101595.97;;;24.48;74.44
69713;BME280;56980;51.826;4.424;2022-08-19T12:36:30;101591.09;;;24.60;73.38
69713;BME280;56980;51.826;4.424;2022-08-19T12:38:58;101585.28;;;24.64;74.57
69713;BME280;56980;51.826;4.424;2022-08-19T12:41:24;101589.78;;;24.67;73.78
69713;BME280;56980;51.826;4.424;2022-08-19T12:43:50;101587.94;;;24.75;72.88
69713;BME280;56980;51.826;4.424;2022-08-19T12:46:17;101585.56;;;24.90;72.35
69713;BME280;56980;51.826;4.424;2022-08-19T12:48:43;101586.50;;;24.98;70.25
69713;BME280;56980;51.826;4.424;2022-08-19T12:51:13;101580.59;;;25.07;70.87
69713;BME280;56980;51.826;4.424;2022-08-19T12:53:39;101585.03;;;25.16;68.94
69713;BME280;56980;51.826;4.424;2022-08-19T12:56:06;101580.69;;;25.20;67.37
69713;BME280;56980;51.826;4.424;2022-08-19T12:58:31;101581.72;;;24.93;70.85